createdAt,value
2022-10-16T00:01:25.162Z,13.22
2022-10-16T00:03:52.595Z,13.21
2022-10-16T00:06:21.893Z,13.22
2022-10-16T00:08:49.454Z,13.19
2022-10-16T00:11:18.630Z,13.13
2022-10-16T00:13:46.587Z,13.14
2022-10-16T00:16:16.309Z,13.12
2022-10-16T00:18:43.355Z,13.12
2022-10-16T00:21:28.656Z,13.03
2022-10-16T00:24:05.411Z,12.99
2022-10-16T00:26:33.847Z,12.97
2022-10-16T00:29:00.759Z,12.97
2022-10-16T00:31:27.902Z,12.95
2022-10-16T00:33:54.795Z,12.91
2022-10-16T00:36:24.750Z,12.94
2022-10-16T00:38:56.384Z,12.94
2022-10-16T00:41:25.571Z,12.92
2022-10-16T00:44:03.107Z,12.89
2022-10-16T00:46:43.083Z,12.84
2022-10-16T00:49:15.795Z,12.78
2022-10-16T00:51:54.792Z,12.78
2022-10-16T00:54:27.170Z,12.76
2022-10-16T00:56:55.573Z,12.69
2022-10-16T00:59:27.211Z,12.66
2022-10-16T01:01:54.995Z,12.60
2022-10-16T01:04:22.900Z,12.57
2022-10-16T01:07:25.707Z,12.52
2022-10-16T01:10:21.538Z,12.40
2022-10-16T01:12:57.079Z,12.29
2022-10-16T01:15:47.845Z,12.24
2022-10-16T01:18:17.371Z,12.10
2022-10-16T01:20:59.432Z,12.07
2022-10-16T01:23:32.971Z,11.99
2022-10-16T01:26:33.088Z,11.89
2022-10-16T01:29:18.723Z,11.77
2022-10-16T01:31:50.911Z,11.72
2022-10-16T01:34:43.114Z,11.61
2022-10-16T01:37:15.693Z,11.58
2022-10-16T01:39:46.442Z,11.47
2022-10-16T01:42:22.478Z,11.45
2022-10-16T01:44:50.307Z,11.36
2022-10-16T01:47:18.691Z,11.27
2022-10-16T01:49:47.008Z,11.17
2022-10-16T01:52:19.321Z,11.01
2022-10-16T01:54:49.167Z,10.97
2022-10-16T01:57:17.667Z,10.89
2022-10-16T01:59:48.475Z,10.79
2022-10-16T02:02:18.482Z,10.53
2022-10-16T02:04:50.648Z,10.57
2022-10-16T02:07:17.639Z,10.51
2022-10-16T02:09:44.644Z,10.43
2022-10-16T02:12:28.226Z,10.32
2022-10-16T02:14:55.132Z,10.31
2022-10-16T02:17:22.462Z,10.25
2022-10-16T02:19:50.755Z,10.15
2022-10-16T02:22:27.786Z,10.11
2022-10-16T02:24:57.545Z,10.01
2022-10-16T02:27:50.769Z,9.95
2022-10-16T02:30:22.919Z,9.91
2022-10-16T02:32:50.374Z,9.79
2022-10-16T02:35:19.626Z,9.73
2022-10-16T02:37:47.930Z,9.70
2022-10-16T02:40:15.591Z,9.68
2022-10-16T02:42:42.509Z,9.70
2022-10-16T02:45:12.066Z,9.59
2022-10-16T02:47:39.123Z,9.52
2022-10-16T02:50:06.291Z,9.48
2022-10-16T02:52:32.815Z,9.41
2022-10-16T02:54:59.283Z,9.42
2022-10-16T02:57:26.060Z,9.39
2022-10-16T02:59:52.968Z,9.30
2022-10-16T03:02:19.651Z,9.27
2022-10-16T03:04:46.134Z,9.21
2022-10-16T03:07:12.669Z,9.19
2022-10-16T03:09:39.165Z,9.11
2022-10-16T03:12:05.919Z,9.10
2022-10-16T03:14:32.507Z,9.11
2022-10-16T03:16:59.019Z,9.05
2022-10-16T03:19:25.537Z,8.89
2022-10-16T03:21:52.086Z,8.85
2022-10-16T03:24:18.564Z,8.81
2022-10-16T03:26:45.077Z,8.79
2022-10-16T03:29:11.578Z,8.72
2022-10-16T03:31:38.234Z,8.72
2022-10-16T03:34:04.715Z,8.67
2022-10-16T03:36:31.229Z,8.62
2022-10-16T03:38:57.825Z,8.62
2022-10-16T03:41:24.355Z,8.57
2022-10-16T03:43:50.848Z,8.55
2022-10-16T03:46:17.336Z,8.51
2022-10-16T03:48:43.884Z,8.48
2022-10-16T03:51:10.507Z,8.42
2022-10-16T03:53:37.095Z,8.35
2022-10-16T03:56:03.599Z,8.31
2022-10-16T03:58:30.133Z,8.30
2022-10-16T04:00:56.675Z,8.28
2022-10-16T04:03:24.016Z,8.25
2022-10-16T04:05:50.934Z,8.15
2022-10-16T04:08:17.641Z,8.13
2022-10-16T04:10:44.821Z,8.14
2022-10-16T04:13:11.932Z,8.09
2022-10-16T04:15:39.123Z,8.04
2022-10-16T04:18:06.722Z,8.00
2022-10-16T04:20:34.095Z,7.96
2022-10-16T04:23:00.602Z,7.90
2022-10-16T04:25:27.086Z,7.91
2022-10-16T04:27:54.686Z,7.84
2022-10-16T04:30:22.152Z,7.83
2022-10-16T04:32:52.907Z,7.76
2022-10-16T04:35:20.765Z,7.69
2022-10-16T04:37:47.501Z,7.65
2022-10-16T04:40:14.751Z,7.65
2022-10-16T04:42:41.744Z,7.65
2022-10-16T04:45:11.999Z,7.61
2022-10-16T04:47:41.616Z,7.56
2022-10-16T04:50:08.917Z,7.55
2022-10-16T04:55:07.656Z,7.48
2022-10-16T04:57:34.439Z,7.47
2022-10-16T05:00:01.169Z,7.41
2022-10-16T05:02:27.767Z,7.35
2022-10-16T05:04:54.411Z,7.35
2022-10-16T05:07:20.899Z,7.34
2022-10-16T05:09:47.417Z,7.28
2022-10-16T05:12:13.978Z,7.30
2022-10-16T05:14:40.509Z,7.27
2022-10-16T05:17:07.155Z,7.27
2022-10-16T05:19:33.683Z,7.31
2022-10-16T05:22:00.241Z,7.29
2022-10-16T05:24:27.217Z,7.30
2022-10-16T05:26:54.064Z,7.28
2022-10-16T05:29:20.820Z,7.29
2022-10-16T05:31:47.311Z,7.30
2022-10-16T05:34:13.822Z,7.29
2022-10-16T05:36:40.303Z,7.27
2022-10-16T05:39:06.818Z,7.31
2022-10-16T05:41:33.327Z,7.32
2022-10-16T05:43:59.840Z,7.35
2022-10-16T05:46:26.311Z,7.42
2022-10-16T05:48:54.291Z,7.46
2022-10-16T05:51:20.825Z,7.48
2022-10-16T05:53:47.474Z,7.46
2022-10-16T05:56:14.147Z,7.48
2022-10-16T05:58:45.544Z,7.51
2022-10-16T06:01:18.127Z,7.55
2022-10-16T06:03:45.258Z,7.61
2022-10-16T06:06:14.243Z,7.69
2022-10-16T06:08:42.264Z,7.78
2022-10-16T06:11:11.742Z,7.84
2022-10-16T06:13:39.844Z,7.91
2022-10-16T06:16:06.917Z,8.03
2022-10-16T06:18:33.398Z,8.11
2022-10-16T06:21:00.085Z,8.23
2022-10-16T06:23:29.556Z,8.31
2022-10-16T06:26:05.471Z,8.42
2022-10-16T06:28:32.188Z,8.54
2022-10-16T06:31:07.296Z,8.62
2022-10-16T06:33:35.786Z,8.74
2022-10-16T06:36:06.735Z,8.86
2022-10-16T06:38:33.683Z,8.96
2022-10-16T06:41:00.274Z,9.08
2022-10-16T06:43:27.419Z,9.21
2022-10-16T06:45:55.087Z,9.33
2022-10-16T06:48:22.108Z,9.46
2022-10-16T06:51:10.291Z,9.63
2022-10-16T06:53:48.911Z,9.78
2022-10-16T06:56:27.355Z,9.90
2022-10-16T06:58:54.762Z,10.00
2022-10-16T07:01:24.193Z,10.11
2022-10-16T07:03:51.361Z,10.24
2022-10-16T07:06:21.212Z,10.35
2022-10-16T07:08:48.502Z,10.45
2022-10-16T07:11:17.922Z,10.57
2022-10-16T07:13:49.302Z,10.69
2022-10-16T07:16:22.255Z,10.81
2022-10-16T07:18:50.198Z,10.93
2022-10-16T07:21:24.046Z,11.03
2022-10-16T07:23:54.958Z,11.17
2022-10-16T07:26:22.320Z,11.25
2022-10-16T07:28:49.380Z,11.37
2022-10-16T07:31:17.742Z,11.52
2022-10-16T07:33:46.153Z,11.61
2022-10-16T07:36:16.264Z,11.71
2022-10-16T07:38:43.901Z,11.87
2022-10-16T07:41:13.176Z,12.02
2022-10-16T07:43:40.016Z,12.14
2022-10-16T07:46:06.791Z,12.25
2022-10-16T07:48:35.012Z,12.38
2022-10-16T07:51:03.439Z,12.51
2022-10-16T07:53:30.152Z,12.61
2022-10-16T07:56:04.058Z,12.76
2022-10-16T07:58:31.335Z,12.87
2022-10-16T08:00:58.592Z,12.96
2022-10-16T08:03:25.790Z,13.10
2022-10-16T08:05:52.572Z,13.21
2022-10-16T08:08:19.907Z,13.39
2022-10-16T08:10:46.705Z,13.49
2022-10-16T08:13:16.065Z,13.62
2022-10-16T08:15:44.210Z,13.78
2022-10-16T08:18:12.231Z,13.93
2022-10-16T08:20:40.987Z,14.05
2022-10-16T08:23:07.837Z,14.16
2022-10-16T08:25:38.317Z,14.14
2022-10-16T08:28:09.326Z,14.25
2022-10-16T08:30:36.325Z,14.38
2022-10-16T08:33:03.555Z,14.56
2022-10-16T08:35:30.146Z,14.70
2022-10-16T08:37:56.861Z,14.87
2022-10-16T08:40:28.574Z,14.92
2022-10-16T08:43:19.503Z,15.05
2022-10-16T08:46:04.725Z,15.21
2022-10-16T08:49:01.334Z,15.43
2022-10-16T08:51:32.064Z,15.61
2022-10-16T08:54:27.701Z,15.77
2022-10-16T08:57:01.691Z,15.99
2022-10-16T08:59:28.204Z,16.15
2022-10-16T09:01:54.755Z,16.26
2022-10-16T09:04:46.158Z,16.45
2022-10-16T09:07:31.394Z,16.60
2022-10-16T09:10:12.723Z,16.67
2022-10-16T09:13:04.645Z,16.72
2022-10-16T09:15:42.730Z,16.89
2022-10-16T09:18:28.583Z,17.14
2022-10-16T09:21:24.222Z,17.31
2022-10-16T09:23:51.523Z,17.62
2022-10-16T09:26:20.727Z,17.89
2022-10-16T09:28:47.335Z,18.07
2022-10-16T09:31:19.853Z,18.25
2022-10-16T09:33:53.659Z,18.41
2022-10-16T09:36:21.336Z,18.63
2022-10-16T09:38:47.826Z,18.89
2022-10-16T09:41:17.438Z,19.11
2022-10-16T09:43:46.768Z,19.39
2022-10-16T09:46:29.091Z,19.66
2022-10-16T09:49:01.543Z,19.93
2022-10-16T09:51:33.810Z,19.92
2022-10-16T09:54:02.901Z,20.09
2022-10-16T09:56:33.599Z,20.44
2022-10-16T09:59:21.754Z,20.88
2022-10-16T10:01:51.838Z,21.21
2022-10-16T10:04:22.069Z,21.34
2022-10-16T10:06:50.038Z,21.67
2022-10-16T10:09:25.185Z,22.05
2022-10-16T10:11:59.211Z,22.24
2022-10-16T10:14:27.611Z,22.74
2022-10-16T10:17:10.354Z,23.32
2022-10-16T10:19:46.834Z,23.62
2022-10-16T10:22:24.764Z,23.76
2022-10-16T10:25:02.884Z,24.59
2022-10-16T10:28:10.591Z,25.11
2022-10-16T10:30:58.993Z,25.73
2022-10-16T10:33:37.730Z,25.76
2022-10-16T10:36:16.322Z,26.39
2022-10-16T10:39:03.976Z,26.83
2022-10-16T10:41:31.504Z,26.66
2022-10-16T10:44:16.216Z,27.67
2022-10-16T10:46:58.094Z,28.08
2022-10-16T10:49:37.551Z,28.45
2022-10-16T10:52:25.910Z,28.78
2022-10-16T10:54:58.706Z,29.03
2022-10-16T10:57:53.056Z,29.31
2022-10-16T11:00:51.415Z,29.83
2022-10-16T11:03:23.856Z,30.25
2022-10-16T11:06:28.151Z,29.67
2022-10-16T11:09:03.293Z,30.26
2022-10-16T11:11:43.402Z,30.57
2022-10-16T11:14:20.999Z,30.98
2022-10-16T11:16:58.271Z,30.83
2022-10-16T11:19:42.000Z,30.83
2022-10-16T11:22:25.767Z,30.02
2022-10-16T11:25:00.701Z,30.78
2022-10-16T11:27:35.944Z,30.80
2022-10-16T11:30:07.801Z,31.21
2022-10-16T11:32:49.874Z,30.18
2022-10-16T11:35:25.439Z,31.01
2022-10-16T11:37:57.515Z,30.95
2022-10-16T11:40:32.407Z,31.74
2022-10-16T11:43:35.813Z,32.38
2022-10-16T11:46:11.952Z,32.16
2022-10-16T11:48:48.478Z,32.30
2022-10-16T11:51:26.135Z,32.36
2022-10-16T11:54:24.785Z,32.24
2022-10-16T11:56:58.641Z,32.28
2022-10-16T11:59:25.064Z,32.50
2022-10-16T12:02:08.525Z,32.20
2022-10-16T12:04:46.444Z,31.73
2022-10-16T12:07:37.479Z,32.43
2022-10-16T12:10:27.610Z,33.40
2022-10-16T12:12:54.999Z,33.91
2022-10-16T12:15:47.370Z,33.86
2022-10-16T12:18:25.275Z,33.27
2022-10-16T12:21:07.073Z,32.85
2022-10-16T12:23:49.317Z,33.15
2022-10-16T12:26:25.590Z,32.89
2022-10-16T12:28:52.888Z,32.60
2022-10-16T12:31:19.550Z,32.88
2022-10-16T12:34:02.057Z,33.19
2022-10-16T12:36:32.112Z,33.29
2022-10-16T12:38:59.971Z,32.80
2022-10-16T12:41:33.671Z,33.05
2022-10-16T12:44:03.756Z,33.83
2022-10-16T12:46:30.215Z,34.05
2022-10-16T12:49:15.011Z,32.35
2022-10-16T12:51:43.132Z,32.92
2022-10-16T12:54:23.903Z,32.82
2022-10-16T12:57:05.664Z,32.36
2022-10-16T12:59:48.018Z,32.79
2022-10-16T13:02:32.507Z,32.03
2022-10-16T13:05:10.101Z,32.14
2022-10-16T13:07:44.715Z,31.71
2022-10-16T13:10:20.458Z,31.86
2022-10-16T13:13:16.195Z,32.51
2022-10-16T13:15:57.833Z,32.80
2022-10-16T13:19:11.955Z,32.71
2022-10-16T13:21:44.209Z,32.90
2022-10-16T13:24:10.756Z,33.12
2022-10-16T13:26:43.974Z,32.60
2022-10-16T13:29:11.034Z,32.60
2022-10-16T13:31:40.546Z,32.72
2022-10-16T13:34:12.554Z,32.55
2022-10-16T13:36:51.313Z,32.35
2022-10-16T13:39:26.653Z,32.18
2022-10-16T13:42:08.978Z,31.14
2022-10-16T13:44:55.435Z,31.37
2022-10-16T13:47:25.049Z,31.75
2022-10-16T13:50:07.619Z,31.47
2022-10-16T13:52:34.453Z,30.89
2022-10-16T13:55:02.306Z,31.39
2022-10-16T13:57:29.532Z,31.25
2022-10-16T13:59:56.249Z,31.08
2022-10-16T14:02:36.795Z,30.78
2022-10-16T14:05:05.449Z,30.76
2022-10-16T14:07:35.099Z,30.68
2022-10-16T14:10:06.317Z,29.89
2022-10-16T14:12:33.619Z,29.71
2022-10-16T14:15:01.776Z,30.23
2022-10-16T14:17:33.563Z,30.40
2022-10-16T14:20:06.172Z,30.45
2022-10-16T14:22:41.614Z,30.30
2022-10-16T14:25:27.544Z,30.43
2022-10-16T14:28:16.884Z,29.76
2022-10-16T14:31:25.560Z,29.91
2022-10-16T14:33:52.129Z,29.73
2022-10-16T14:36:20.406Z,29.62
2022-10-16T14:39:16.937Z,29.43
2022-10-16T14:41:47.172Z,29.06
2022-10-16T14:44:14.266Z,29.13
2022-10-16T14:46:43.558Z,28.59
2022-10-16T14:49:10.115Z,28.25
2022-10-16T14:51:38.151Z,27.23
2022-10-16T14:54:05.551Z,26.77
2022-10-16T14:56:44.775Z,26.45
2022-10-16T14:59:25.978Z,26.35
2022-10-16T15:01:52.954Z,25.94
2022-10-16T15:04:19.717Z,25.77
2022-10-16T15:06:46.218Z,25.53
2022-10-16T15:09:12.882Z,24.82
2022-10-16T15:11:39.711Z,24.80
2022-10-16T15:14:06.408Z,24.58
2022-10-16T15:16:33.045Z,24.33
2022-10-16T15:18:59.567Z,24.06
2022-10-16T15:21:29.215Z,23.60
2022-10-16T15:23:57.455Z,23.54
2022-10-16T15:26:25.855Z,23.17
2022-10-16T15:28:52.537Z,22.92
2022-10-16T15:31:19.318Z,23.29
2022-10-16T15:33:52.402Z,22.66
2022-10-16T15:36:18.936Z,22.26
2022-10-16T15:38:46.431Z,21.90
2022-10-16T15:41:12.909Z,21.70
2022-10-16T15:43:39.378Z,21.17
2022-10-16T15:46:09.470Z,20.89
2022-10-16T15:48:36.044Z,20.63
2022-10-16T15:51:06.562Z,20.58
2022-10-16T15:53:33.103Z,20.39
2022-10-16T15:56:03.179Z,20.08
2022-10-16T15:58:30.989Z,19.81
2022-10-16T16:01:01.676Z,19.50
2022-10-16T16:03:29.531Z,19.35
2022-10-16T16:05:56.358Z,19.21
2022-10-16T16:08:22.999Z,18.78
2022-10-16T16:11:03.647Z,18.42
2022-10-16T16:13:30.212Z,18.15
2022-10-16T16:15:56.998Z,18.04
2022-10-16T16:18:24.834Z,17.90
2022-10-16T16:20:52.382Z,17.79
2022-10-16T16:23:20.134Z,17.56
2022-10-16T16:25:46.663Z,17.56
2022-10-16T16:28:15.331Z,17.53
2022-10-16T16:30:42.225Z,17.33
2022-10-16T16:33:08.780Z,17.07
2022-10-16T16:35:35.266Z,16.96
2022-10-16T16:38:01.762Z,16.76
2022-10-16T16:40:28.475Z,16.62
2022-10-16T16:42:54.968Z,16.64
2022-10-16T16:45:21.504Z,16.55
2022-10-16T16:47:48.022Z,16.24
2022-10-16T16:50:14.520Z,16.20
2022-10-16T16:52:41.074Z,16.19
2022-10-16T16:55:08.033Z,16.02
2022-10-16T16:57:34.565Z,15.92
2022-10-16T17:00:01.057Z,15.79
2022-10-16T17:02:27.554Z,15.80
2022-10-16T17:04:54.312Z,15.64
2022-10-16T17:07:24.218Z,15.39
2022-10-16T17:09:51.212Z,15.35
2022-10-16T17:12:17.721Z,15.24
2022-10-16T17:14:44.352Z,15.22
2022-10-16T17:17:10.984Z,15.03
2022-10-16T17:19:37.490Z,14.91
2022-10-16T17:24:35.634Z,14.98
2022-10-16T17:27:02.194Z,14.88
2022-10-16T17:29:28.710Z,14.77
2022-10-16T17:31:56.759Z,14.57
2022-10-16T17:34:23.251Z,14.54
2022-10-16T17:36:49.775Z,14.38
2022-10-16T17:39:20.152Z,14.25
2022-10-16T17:41:48.270Z,14.14
2022-10-16T17:44:19.986Z,14.01
2022-10-16T17:46:52.436Z,14.02
2022-10-16T17:49:19.554Z,13.93
2022-10-16T17:51:46.215Z,13.92
2022-10-16T17:54:14.588Z,13.83
2022-10-16T17:56:41.300Z,13.60
2022-10-16T17:59:07.917Z,13.27
2022-10-16T18:01:37.098Z,13.38
2022-10-16T18:04:07.323Z,13.35
2022-10-16T18:06:34.540Z,13.39
2022-10-16T18:09:02.775Z,13.34
2022-10-16T18:11:30.371Z,13.22
2022-10-16T18:13:59.172Z,13.22
2022-10-16T18:16:27.082Z,13.20
2022-10-16T18:18:55.255Z,13.11
2022-10-16T18:21:21.868Z,13.11
2022-10-16T18:23:52.212Z,12.95
2022-10-16T18:26:20.441Z,12.83
2022-10-16T18:28:47.375Z,12.81
2022-10-16T18:31:16.283Z,12.83
2022-10-16T18:33:48.127Z,12.80
2022-10-16T18:36:15.915Z,12.73
2022-10-16T18:38:42.577Z,12.70
2022-10-16T18:41:09.326Z,12.60
2022-10-16T18:43:37.550Z,12.56
2022-10-16T18:46:06.839Z,12.45
2022-10-16T18:48:34.800Z,12.42
2022-10-16T18:51:19.163Z,12.46
2022-10-16T18:53:48.366Z,12.32
2022-10-16T18:56:16.497Z,12.28
2022-10-16T18:58:44.711Z,12.20
2022-10-16T19:01:16.322Z,12.12
2022-10-16T19:03:43.526Z,12.18
2022-10-16T19:06:13.346Z,12.04
2022-10-16T19:08:40.845Z,12.01
2022-10-16T19:11:16.666Z,11.89
2022-10-16T19:13:43.987Z,11.88
2022-10-16T19:16:20.317Z,11.82
2022-10-16T19:18:48.473Z,11.88
2022-10-16T19:21:15.960Z,11.78
2022-10-16T19:23:42.875Z,11.67
2022-10-16T19:26:12.990Z,11.58
2022-10-16T19:28:40.643Z,11.56
2022-10-16T19:31:13.100Z,11.42
2022-10-16T19:33:40.618Z,11.53
2022-10-16T19:36:18.549Z,11.51
2022-10-16T19:38:46.681Z,11.46
2022-10-16T19:41:15.614Z,11.39
2022-10-16T19:43:43.101Z,11.42
2022-10-16T19:46:21.897Z,11.38
2022-10-16T19:48:48.979Z,11.21
2022-10-16T19:51:18.867Z,11.19
2022-10-16T19:53:47.141Z,11.11
2022-10-16T19:56:16.854Z,11.12
2022-10-16T19:58:44.848Z,11.10
2022-10-16T20:01:13.009Z,11.06
2022-10-16T20:03:40.386Z,10.95
2022-10-16T20:06:08.671Z,10.87
2022-10-16T20:08:37.071Z,10.86
2022-10-16T20:11:05.125Z,10.78
2022-10-16T20:13:32.678Z,10.71
2022-10-16T20:15:59.307Z,10.73
2022-10-16T20:18:25.937Z,10.74
2022-10-16T20:20:52.679Z,10.70
2022-10-16T20:23:19.591Z,10.66
2022-10-16T20:25:46.765Z,10.65
2022-10-16T20:28:16.050Z,10.64
2022-10-16T20:30:44.974Z,10.63
2022-10-16T20:33:12.407Z,10.62
2022-10-16T20:35:44.297Z,10.41
2022-10-16T20:38:12.125Z,10.44
2022-10-16T20:40:41.605Z,10.37
2022-10-16T20:43:14.470Z,10.37
2022-10-16T20:45:41.242Z,10.34
2022-10-16T20:48:08.811Z,10.37
2022-10-16T20:50:35.287Z,10.30
2022-10-16T20:53:01.825Z,10.27
2022-10-16T20:55:28.521Z,10.27
2022-10-16T20:57:56.024Z,10.30
2022-10-16T21:00:22.906Z,10.21
2022-10-16T21:02:52.807Z,10.21
2022-10-16T21:05:19.394Z,10.21
2022-10-16T21:07:46.450Z,10.21
2022-10-16T21:10:13.091Z,10.13
2022-10-16T21:12:39.635Z,10.11
2022-10-16T21:15:14.910Z,10.06
2022-10-16T21:17:41.955Z,10.05
2022-10-16T21:20:08.841Z,10.04
2022-10-16T21:22:35.545Z,10.01
2022-10-16T21:25:02.099Z,9.90
2022-10-16T21:27:28.642Z,9.80
2022-10-16T21:29:55.172Z,9.80
2022-10-16T21:32:22.188Z,9.77
2022-10-16T21:34:48.769Z,9.72
2022-10-16T21:37:15.258Z,9.71
2022-10-16T21:39:41.767Z,9.70
2022-10-16T21:42:08.407Z,9.63
2022-10-16T21:44:35.060Z,9.64
2022-10-16T21:47:01.544Z,9.66
2022-10-16T21:49:28.211Z,9.63
2022-10-16T21:51:54.719Z,9.61
2022-10-16T21:54:25.043Z,9.59
2022-10-16T21:56:52.979Z,9.54
2022-10-16T21:59:19.867Z,9.54
2022-10-16T22:01:46.588Z,9.53
2022-10-16T22:04:15.054Z,9.47
2022-10-16T22:06:42.206Z,9.43
2022-10-16T22:09:12.591Z,9.38
2022-10-16T22:11:39.133Z,9.39
2022-10-16T22:14:12.836Z,9.40
2022-10-16T22:16:39.759Z,9.39
2022-10-16T22:19:09.596Z,9.34
2022-10-16T22:21:38.346Z,9.30
2022-10-16T22:24:06.333Z,9.18
2022-10-16T22:26:33.617Z,9.21
2022-10-16T22:29:00.235Z,9.22
2022-10-16T22:31:26.820Z,9.15
2022-10-16T22:33:58.472Z,9.16
2022-10-16T22:36:26.251Z,9.13
2022-10-16T22:38:53.405Z,9.16
2022-10-16T22:41:21.355Z,9.16
2022-10-16T22:43:49.431Z,9.17
2022-10-16T22:46:19.168Z,9.15
2022-10-16T22:48:45.979Z,9.09
2022-10-16T22:51:17.213Z,8.96
2022-10-16T22:53:44.904Z,8.87
2022-10-16T22:56:12.072Z,8.82
2022-10-16T22:58:38.642Z,8.83
2022-10-16T23:01:20.834Z,8.84
2022-10-16T23:03:47.615Z,8.77
2022-10-16T23:06:14.714Z,8.78
2022-10-16T23:08:41.263Z,8.77
2022-10-16T23:11:10.078Z,8.72
2022-10-16T23:13:38.131Z,8.68
2022-10-16T23:16:06.542Z,8.65
2022-10-16T23:18:36.937Z,8.55
2022-10-16T23:21:11.919Z,8.57
2022-10-16T23:23:39.330Z,8.54
2022-10-16T23:26:11.199Z,8.54
2022-10-16T23:28:38.200Z,8.57
2022-10-16T23:31:05.705Z,8.49
2022-10-16T23:33:33.751Z,8.53
2022-10-16T23:36:03.402Z,8.52
2022-10-16T23:38:29.899Z,8.52
2022-10-16T23:40:56.571Z,8.45
2022-10-16T23:43:23.061Z,8.40
2022-10-16T23:45:49.678Z,8.28
2022-10-16T23:48:16.180Z,8.26
2022-10-16T23:50:42.646Z,8.28
2022-10-16T23:53:10.191Z,8.31
2022-10-16T23:55:36.925Z,8.25
2022-10-16T23:58:03.415Z,8.23
